Time;durP1;ratioP1;P1;durP2;ratioP2;P2;SDS_P1;SDS_P2;PMS_P1;PMS_P2;Temp;Humidity;BMP_temperature;BMP_pressure;BME280_temperature;BME280_humidity;BME280_pressure;Samples;Min_cycle;Max_cycle;Signal;HPM_P1;HPM_P2
2022/04/03 00:00:35;;;;;;;;;;;2.60;67.10;;;;;;4943138;28;20191;-79
2022/04/03 00:03:01;;;;;;;;;;;2.60;66.90;;;;;;4944946;28;20074;-79
2022/04/03 00:05:27;;;;;;;;;;;2.60;67.10;;;;;;4940617;28;20262;-79
2022/04/03 00:07:58;;;;;;;;;;;2.50;67.40;;;;;;4942239;28;20420;-78
2022/04/03 00:10:23;;;;;;;;;;;2.40;67.30;;;;;;4941368;28;20171;-78
2022/04/03 00:12:50;;;;;;;;;;;2.50;67.60;;;;;;4937099;28;20341;-79
2022/04/03 00:15:23;;;;;;;;;;;2.50;68.10;;;;;;4934907;28;20574;-80
2022/04/03 00:17:48;;;;;;;;;;;2.50;67.90;;;;;;4942999;28;20210;-78
2022/04/03 00:20:16;;;;;;;;;;;2.50;67.70;;;;;;4946672;28;20226;-79
2022/04/03 00:22:47;;;;;;;;;;;2.50;68.10;;;;;;4949837;28;20277;-78
2022/04/03 00:25:14;;;;;;;;;;;2.60;67.60;;;;;;4946653;28;20361;-79
2022/04/03 00:27:40;;;;;;;;;;;2.50;67.30;;;;;;4943096;28;20214;-79
2022/04/03 00:30:06;;;;;;;;;;;2.60;67.70;;;;;;4938467;28;20126;-80
2022/04/03 00:32:32;;;;;;;;;;;2.60;68.10;;;;;;4935322;28;20342;-79
2022/04/03 00:34:58;;;;;;;;;;;2.60;68.10;;;;;;4931797;28;20427;-78
2022/04/03 00:37:24;;;;;;;;;;;2.60;68.60;;;;;;4931826;28;20282;-79
2022/04/03 00:39:49;;;;;;;;;;;2.60;67.50;;;;;;4971653;28;19917;-79
2022/04/03 00:42:14;;;;;;;;;;;2.50;68.00;;;;;;4998567;28;20396;-78
2022/04/03 00:44:40;;;;;;;;;;;2.60;68.30;;;;;;4998537;28;20116;-78
2022/04/03 00:47:06;;;;;;;;;;;2.60;67.90;;;;;;5000632;28;20277;-79
2022/04/03 00:49:32;;;;;;;;;;;2.50;69.70;;;;;;5031788;28;19917;-78
2022/04/03 00:51:57;;;;;;;;;;;2.50;69.70;;;;;;5031619;28;20063;-79
2022/04/03 00:54:23;;;;;;;;;;;2.50;69.60;;;;;;5029469;28;20015;-79
2022/04/03 00:56:49;;;;;;;;;;;2.50;68.80;;;;;;5002444;28;19913;-79
2022/04/03 00:59:15;;;;;;;;;;;2.50;68.60;;;;;;4985654;28;19910;-79
2022/04/03 01:01:41;;;;;;;;;;;2.60;68.70;;;;;;4948404;28;20223;-79
2022/04/03 01:04:08;;;;;;;;;;;2.60;68.40;;;;;;4925748;28;20155;-79
2022/04/03 01:06:34;;;;;;;;;;;2.60;67.90;;;;;;4928060;28;20264;-79
2022/04/03 01:09:00;;;;;;;;;;;2.60;67.80;;;;;;4930748;28;20133;-79
2022/04/03 01:11:26;;;;;;;;;;;2.60;67.90;;;;;;4929683;28;20714;-78
2022/04/03 01:13:52;;;;;;;;;;;2.50;68.00;;;;;;4927688;28;20345;-78
2022/04/03 01:16:18;;;;;;;;;;;2.40;68.00;;;;;;4932567;28;20246;-78
2022/04/03 01:18:44;;;;;;;;;;;2.40;68.90;;;;;;4930429;28;19939;-78
2022/04/03 01:21:10;;;;;;;;;;;2.50;69.40;;;;;;4929280;28;20220;-79
2022/04/03 01:23:36;;;;;;;;;;;2.50;68.60;;;;;;4929405;28;20285;-79
2022/04/03 01:26:02;;;;;;;;;;;2.40;69.40;;;;;;4928353;28;20352;-79
2022/04/03 01:28:31;;;;;;;;;;;2.40;69.90;;;;;;4928920;28;20317;-79
2022/04/03 01:30:56;;;;;;;;;;;2.30;69.50;;;;;;4928060;28;20632;-79
2022/04/03 01:33:22;;;;;;;;;;;2.20;70.40;;;;;;4927626;28;20083;-79
2022/04/03 01:35:48;;;;;;;;;;;2.20;70.60;;;;;;4926038;28;20200;-80
2022/04/03 01:38:14;;;;;;;;;;;2.20;70.90;;;;;;4928884;28;20023;-78
2022/04/03 01:40:40;;;;;;;;;;;2.20;71.10;;;;;;4928948;28;20242;-77
2022/04/03 01:43:07;;;;;;;;;;;2.20;71.40;;;;;;4929026;28;20246;-78
2022/04/03 01:45:34;;;;;;;;;;;2.20;71.90;;;;;;4928376;28;20149;-78
2022/04/03 01:48:00;;;;;;;;;;;2.20;73.00;;;;;;4929169;28;20290;-78
2022/04/03 01:50:26;;;;;;;;;;;2.10;72.70;;;;;;4930637;28;20807;-78
2022/04/03 01:52:52;;;;;;;;;;;2.10;72.60;;;;;;4928258;28;20595;-78
2022/04/03 01:55:18;;;;;;;;;;;2.20;73.10;;;;;;4927557;28;20099;-78
2022/04/03 01:57:44;;;;;;;;;;;2.10;72.60;;;;;;4927430;28;20218;-78
2022/04/03 02:00:10;;;;;;;;;;;2.20;72.40;;;;;;4928021;28;20662;-78
2022/04/03 02:02:36;;;;;;;;;;;2.20;71.90;;;;;;4943593;28;19913;-79
2022/04/03 02:05:03;;;;;;;;;;;2.10;72.00;;;;;;5038021;28;19943;-78
2022/04/03 02:07:29;;;;;;;;;;;2.10;72.10;;;;;;5039036;28;19938;-78
2022/04/03 02:09:55;;;;;;;;;;;2.10;72.50;;;;;;5038381;28;20011;-79
2022/04/03 02:12:20;;;;;;;;;;;2.10;71.10;;;;;;5036307;28;19968;-78
2022/04/03 02:14:46;;;;;;;;;;;2.00;71.30;;;;;;5036658;28;19921;-79
2022/04/03 02:17:11;;;;;;;;;;;2.00;71.80;;;;;;5039845;28;19917;-79
2022/04/03 02:19:37;;;;;;;;;;;2.00;72.00;;;;;;5040322;28;20098;-79
2022/04/03 02:22:02;;;;;;;;;;;2.00;71.90;;;;;;5038872;28;19925;-78
2022/04/03 02:24:28;;;;;;;;;;;2.00;71.40;;;;;;5041803;28;20409;-79
2022/04/03 02:26:54;;;;;;;;;;;2.00;71.70;;;;;;5034461;28;19913;-79
2022/04/03 02:29:19;;;;;;;;;;;1.80;72.00;;;;;;5040365;28;19925;-78
2022/04/03 02:31:44;;;;;;;;;;;1.80;72.80;;;;;;5040106;28;19943;-79
2022/04/03 02:34:10;;;;;;;;;;;1.70;72.10;;;;;;5041371;28;19951;-80
2022/04/03 02:36:35;;;;;;;;;;;1.70;72.90;;;;;;5040462;28;19927;-78
2022/04/03 02:39:01;;;;;;;;;;;1.60;73.20;;;;;;5041449;28;19921;-78
2022/04/03 02:41:27;;;;;;;;;;;1.60;73.70;;;;;;5041849;28;19920;-79
2022/04/03 02:43:53;;;;;;;;;;;1.60;74.10;;;;;;5041099;28;19935;-78
2022/04/03 02:46:18;;;;;;;;;;;1.60;74.50;;;;;;5039198;28;20307;-78
2022/04/03 02:48:43;;;;;;;;;;;1.60;74.60;;;;;;5038225;28;19954;-78
2022/04/03 02:51:09;;;;;;;;;;;1.60;74.70;;;;;;5036371;28;19919;-79
2022/04/03 02:53:34;;;;;;;;;;;1.60;74.70;;;;;;5036569;28;19920;-79
2022/04/03 02:56:00;;;;;;;;;;;1.60;74.80;;;;;;5037647;28;19939;-78
2022/04/03 02:58:25;;;;;;;;;;;1.60;74.50;;;;;;5039236;28;19975;-78
2022/04/03 03:00:51;;;;;;;;;;;1.60;74.70;;;;;;5036600;28;20000;-78
2022/04/03 03:03:16;;;;;;;;;;;1.60;74.80;;;;;;5037813;28;19947;-79
2022/04/03 03:05:43;;;;;;;;;;;1.60;74.30;;;;;;5036138;28;19956;-78
2022/04/03 03:08:08;;;;;;;;;;;1.60;74.40;;;;;;5038173;28;19940;-79
2022/04/03 03:10:34;;;;;;;;;;;1.60;75.00;;;;;;5035952;28;19924;-78
2022/04/03 03:12:59;;;;;;;;;;;1.70;74.90;;;;;;5035954;28;19941;-78
2022/04/03 03:15:25;;;;;;;;;;;1.70;74.90;;;;;;5037616;28;20408;-78
2022/04/03 03:17:50;;;;;;;;;;;1.70;74.40;;;;;;5032109;28;20386;-78
2022/04/03 03:20:16;;;;;;;;;;;1.60;74.90;;;;;;5026714;28;19917;-78
2022/04/03 03:22:42;;;;;;;;;;;1.60;75.40;;;;;;5031697;28;19929;-78
2022/04/03 03:25:08;;;;;;;;;;;1.60;75.30;;;;;;5031887;28;20016;-78
2022/04/03 03:27:33;;;;;;;;;;;1.80;74.90;;;;;;5032414;28;19913;-78
2022/04/03 03:29:59;;;;;;;;;;;1.80;74.10;;;;;;5031856;28;20446;-79
2022/04/03 03:32:25;;;;;;;;;;;1.60;74.60;;;;;;5035400;28;20367;-79
2022/04/03 03:34:51;;;;;;;;;;;1.60;75.80;;;;;;5035543;28;20265;-78
2022/04/03 03:37:16;;;;;;;;;;;1.60;75.30;;;;;;5037345;28;19971;-79
2022/04/03 03:39:42;;;;;;;;;;;1.60;74.50;;;;;;5032446;28;19917;-79
2022/04/03 03:42:07;;;;;;;;;;;1.70;74.00;;;;;;5031326;28;19923;-78
2022/04/03 03:44:33;;;;;;;;;;;1.60;74.30;;;;;;5041959;28;19914;-78
2022/04/03 03:46:58;;;;;;;;;;;1.70;74.60;;;;;;5039611;28;19914;-79
2022/04/03 03:49:24;;;;;;;;;;;1.70;75.10;;;;;;5041364;28;19983;-78
2022/04/03 03:51:49;;;;;;;;;;;1.70;75.10;;;;;;5048445;28;20398;-79
2022/04/03 03:54:15;;;;;;;;;;;1.70;74.50;;;;;;5047547;28;19936;-79
2022/04/03 03:56:40;;;;;;;;;;;1.70;74.70;;;;;;5045592;28;20072;-78
2022/04/03 03:59:05;;;;;;;;;;;1.60;74.00;;;;;;5044499;28;19917;-78
2022/04/03 04:01:31;;;;;;;;;;;1.60;74.20;;;;;;5044589;28;19981;-78
2022/04/03 04:03:57;;;;;;;;;;;1.50;74.30;;;;;;5044174;28;19924;-79
2022/04/03 04:06:22;;;;;;;;;;;1.60;74.70;;;;;;5041882;28;19921;-78
2022/04/03 04:08:49;;;;;;;;;;;1.50;75.00;;;;;;5041182;28;20696;-79
2022/04/03 04:11:15;;;;;;;;;;;1.40;75.00;;;;;;5042753;28;19919;-79
2022/04/03 04:13:40;;;;;;;;;;;1.40;75.40;;;;;;5040496;28;20027;-78
2022/04/03 04:16:06;;;;;;;;;;;1.30;75.70;;;;;;5038396;28;19962;-78
2022/04/03 04:18:31;;;;;;;;;;;1.30;75.90;;;;;;5039519;28;19960;-78
2022/04/03 04:20:57;;;;;;;;;;;1.30;76.50;;;;;;5041580;28;19920;-79
2022/04/03 04:23:22;;;;;;;;;;;1.30;76.50;;;;;;5041488;28;19909;-79
2022/04/03 04:25:48;;;;;;;;;;;1.30;76.80;;;;;;5043340;28;19917;-78
2022/04/03 04:28:13;;;;;;;;;;;1.30;76.50;;;;;;5041393;28;19956;-79
2022/04/03 04:30:39;;;;;;;;;;;1.30;77.10;;;;;;5041874;28;19921;-79
2022/04/03 04:33:06;;;;;;;;;;;1.20;77.10;;;;;;5040807;28;19913;-79
2022/04/03 04:35:32;;;;;;;;;;;1.20;77.00;;;;;;5040245;28;19909;-79
2022/04/03 04:37:58;;;;;;;;;;;1.30;76.50;;;;;;5039138;28;20008;-79
2022/04/03 04:40:23;;;;;;;;;;;1.30;76.20;;;;;;5038824;28;19956;-78
2022/04/03 04:42:49;;;;;;;;;;;1.30;76.00;;;;;;5038402;28;19953;-78
2022/04/03 04:45:15;;;;;;;;;;;1.20;75.70;;;;;;5038066;28;19916;-78
2022/04/03 04:47:41;;;;;;;;;;;1.10;75.90;;;;;;5039813;28;19963;-78
2022/04/03 04:50:11;;;;;;;;;;;1.10;76.30;;;;;;5037395;28;19921;-78
2022/04/03 04:52:38;;;;;;;;;;;1.10;76.10;;;;;;5038875;28;20260;-78
2022/04/03 04:55:05;;;;;;;;;;;1.00;76.40;;;;;;5041128;28;19923;-78
2022/04/03 04:57:35;;;;;;;;;;;1.00;76.60;;;;;;5036691;28;19909;-78
2022/04/03 05:00:00;;;;;;;;;;;0.80;76.60;;;;;;5038418;28;19937;-78
2022/04/03 05:02:26;;;;;;;;;;;0.80;76.90;;;;;;5038842;28;19971;-78
2022/04/03 05:04:52;;;;;;;;;;;0.80;76.80;;;;;;5037242;28;19917;-78
2022/04/03 05:07:18;;;;;;;;;;;0.80;77.20;;;;;;5038395;28;19913;-78
2022/04/03 05:09:44;;;;;;;;;;;0.70;77.10;;;;;;5039871;28;19971;-79
2022/04/03 05:12:10;;;;;;;;;;;0.80;77.30;;;;;;5055808;28;19917;-78
2022/04/03 05:14:37;;;;;;;;;;;0.70;77.20;;;;;;5042269;28;19917;-78
2022/04/03 05:17:03;;;;;;;;;;;0.70;77.40;;;;;;5040116;28;20004;-78
2022/04/03 05:19:29;;;;;;;;;;;0.80;77.60;;;;;;5037004;28;19917;-78
2022/04/03 05:21:54;;;;;;;;;;;0.80;77.90;;;;;;5038325;28;19909;-79
2022/04/03 05:24:19;;;;;;;;;;;0.80;77.70;;;;;;5039399;28;20371;-78
2022/04/03 05:26:45;;;;;;;;;;;0.80;77.90;;;;;;5041545;28;20450;-79
2022/04/03 05:29:10;;;;;;;;;;;0.80;78.00;;;;;;5038629;28;20427;-79
2022/04/03 05:31:36;;;;;;;;;;;0.80;78.00;;;;;;5039738;28;19917;-78
2022/04/03 05:34:02;;;;;;;;;;;0.70;77.80;;;;;;5037790;28;19984;-79
2022/04/03 05:36:28;;;;;;;;;;;0.60;77.70;;;;;;5028782;28;19980;-78
2022/04/03 05:38:53;;;;;;;;;;;0.70;77.30;;;;;;5031387;28;20280;-78
2022/04/03 05:41:19;;;;;;;;;;;0.70;77.30;;;;;;5037262;28;19913;-78
2022/04/03 05:43:44;;;;;;;;;;;0.70;77.20;;;;;;5045498;28;19944;-78
2022/04/03 05:46:10;;;;;;;;;;;0.70;77.10;;;;;;5047944;28;19920;-78
2022/04/03 05:48:36;;;;;;;;;;;0.80;77.20;;;;;;5042709;28;19963;-79
2022/04/03 05:51:01;;;;;;;;;;;0.90;76.80;;;;;;5044664;28;19913;-79
2022/04/03 05:53:27;;;;;;;;;;;0.90;77.10;;;;;;5041188;28;19913;-78
2022/04/03 05:55:52;;;;;;;;;;;0.80;78.00;;;;;;5041546;28;19967;-80
2022/04/03 05:58:18;;;;;;;;;;;0.80;78.00;;;;;;5036847;28;19913;-81
2022/04/03 06:00:43;;;;;;;;;;;0.80;77.50;;;;;;5034535;28;20025;-81
2022/04/03 06:03:09;;;;;;;;;;;0.80;77.90;;;;;;5037430;28;19920;-80
2022/04/03 06:05:34;;;;;;;;;;;0.90;77.80;;;;;;5032158;28;19913;-80
2022/04/03 06:08:03;;;;;;;;;;;0.90;77.70;;;;;;5034508;28;19913;-80
2022/04/03 06:10:29;;;;;;;;;;;1.00;77.50;;;;;;5035109;28;19925;-81
2022/04/03 06:12:55;;;;;;;;;;;1.00;77.80;;;;;;5046396;28;19948;-81
2022/04/03 06:15:20;;;;;;;;;;;1.10;76.60;;;;;;5047992;28;19913;-81
2022/04/03 06:17:50;;;;;;;;;;;1.10;76.40;;;;;;5041608;28;19994;-82
2022/04/03 06:20:15;;;;;;;;;;;1.20;75.00;;;;;;5043124;28;19952;-80
2022/04/03 06:22:42;;;;;;;;;;;1.30;74.50;;;;;;5043277;28;19932;-80
2022/04/03 06:25:07;;;;;;;;;;;1.40;74.70;;;;;;5044296;28;19913;-81
2022/04/03 06:27:34;;;;;;;;;;;1.50;74.10;;;;;;5038390;28;19959;-81
2022/04/03 06:29:59;;;;;;;;;;;1.60;74.60;;;;;;5036151;28;19959;-81
2022/04/03 06:32:25;;;;;;;;;;;1.70;74.40;;;;;;5036782;28;19913;-80
2022/04/03 06:34:50;;;;;;;;;;;1.70;74.80;;;;;;5037111;28;20347;-81
2022/04/03 06:37:16;;;;;;;;;;;1.80;75.00;;;;;;5040234;28;20028;-81
2022/04/03 06:39:41;;;;;;;;;;;1.80;75.00;;;;;;5042911;28;19913;-81
2022/04/03 06:42:07;;;;;;;;;;;2.00;74.50;;;;;;5044480;28;20422;-81
2022/04/03 06:44:33;;;;;;;;;;;2.10;73.60;;;;;;5042724;28;20264;-80
2022/04/03 06:46:59;;;;;;;;;;;2.20;73.80;;;;;;5041279;28;20010;-80
2022/04/03 06:49:25;;;;;;;;;;;2.20;73.70;;;;;;5036676;28;19943;-80
2022/04/03 06:51:50;;;;;;;;;;;2.30;73.20;;;;;;5034593;28;20364;-81
2022/04/03 06:54:16;;;;;;;;;;;2.30;73.30;;;;;;5036936;28;19943;-81
2022/04/03 06:56:41;;;;;;;;;;;2.40;71.90;;;;;;5036214;28;20277;-81
2022/04/03 06:59:07;;;;;;;;;;;2.40;72.10;;;;;;5040205;28;19916;-80
2022/04/03 07:01:32;;;;;;;;;;;2.50;71.70;;;;;;5036038;28;19924;-81
2022/04/03 07:03:58;;;;;;;;;;;2.60;70.90;;;;;;5032226;28;19919;-80
2022/04/03 07:06:23;;;;;;;;;;;2.60;70.60;;;;;;5029572;28;19989;-81
2022/04/03 07:08:49;;;;;;;;;;;2.80;69.70;;;;;;5037648;28;19975;-81
2022/04/03 07:11:15;;;;;;;;;;;2.80;69.20;;;;;;5038338;28;19921;-81
2022/04/03 07:13:40;;;;;;;;;;;2.90;68.80;;;;;;5035465;28;19940;-81
2022/04/03 07:16:06;;;;;;;;;;;3.00;66.70;;;;;;5039387;28;19923;-81
2022/04/03 07:18:31;;;;;;;;;;;3.10;67.40;;;;;;5039964;28;19967;-82
2022/04/03 07:20:57;;;;;;;;;;;3.10;67.40;;;;;;5035664;28;20407;-79
2022/04/03 07:23:24;;;;;;;;;;;3.10;66.30;;;;;;5037790;28;19909;-80
2022/04/03 07:25:49;;;;;;;;;;;3.20;65.50;;;;;;5038668;28;19948;-79
2022/04/03 07:28:15;;;;;;;;;;;3.30;65.10;;;;;;5035915;28;20268;-80
2022/04/03 07:30:40;;;;;;;;;;;3.50;64.70;;;;;;5032125;28;20545;-80
2022/04/03 07:33:06;;;;;;;;;;;3.60;63.50;;;;;;5040781;28;19916;-80
2022/04/03 07:35:31;;;;;;;;;;;3.60;62.70;;;;;;5037834;28;19964;-80
2022/04/03 07:37:57;;;;;;;;;;;3.60;63.90;;;;;;5037716;28;19916;-81
2022/04/03 07:40:22;;;;;;;;;;;3.60;62.90;;;;;;5034573;28;19921;-80
2022/04/03 07:42:49;;;;;;;;;;;3.60;62.60;;;;;;5027480;28;19909;-80
2022/04/03 07:45:15;;;;;;;;;;;3.60;62.90;;;;;;5033262;28;20408;-79
2022/04/03 07:47:48;;;;;;;;;;;3.70;63.00;;;;;;5038452;28;19943;-81
2022/04/03 07:50:13;;;;;;;;;;;3.80;61.40;;;;;;5038960;28;19928;-80
2022/04/03 07:52:38;;;;;;;;;;;3.90;61.30;;;;;;5038332;28;19910;-80
2022/04/03 07:55:04;;;;;;;;;;;3.90;61.60;;;;;;5041423;28;19955;-80
2022/04/03 07:57:30;;;;;;;;;;;4.10;59.10;;;;;;5038527;28;20023;-82
2022/04/03 07:59:55;;;;;;;;;;;4.20;57.20;;;;;;5034336;28;20327;-81
2022/04/03 08:02:21;;;;;;;;;;;4.30;56.20;;;;;;5035469;28;19916;-79
2022/04/03 08:04:46;;;;;;;;;;;4.40;57.30;;;;;;5030271;28;19952;-80
2022/04/03 08:07:12;;;;;;;;;;;4.40;56.20;;;;;;5039604;28;19924;-80
2022/04/03 08:09:38;;;;;;;;;;;4.40;56.50;;;;;;5039622;28;19928;-79
2022/04/03 08:12:04;;;;;;;;;;;4.50;55.80;;;;;;5037618;28;20024;-78
2022/04/03 08:14:31;;;;;;;;;;;4.60;54.80;;;;;;5041268;28;20241;-81
2022/04/03 08:16:56;;;;;;;;;;;4.50;55.60;;;;;;5035811;28;19948;-79
2022/04/03 08:19:22;;;;;;;;;;;4.60;53.70;;;;;;5038694;28;19917;-78
2022/04/03 08:21:47;;;;;;;;;;;4.60;54.40;;;;;;5042203;28;20007;-79
2022/04/03 08:24:12;;;;;;;;;;;4.60;55.80;;;;;;5042295;28;19957;-81
2022/04/03 08:26:38;;;;;;;;;;;4.70;55.90;;;;;;5043079;28;19917;-81
2022/04/03 08:29:03;;;;;;;;;;;5.10;53.10;;;;;;5039036;28;19918;-80
2022/04/03 08:31:29;;;;;;;;;;;5.30;52.70;;;;;;5035853;28;19959;-79
2022/04/03 08:33:55;;;;;;;;;;;5.30;52.30;;;;;;5031630;28;20316;-81
2022/04/03 08:36:20;;;;;;;;;;;5.50;51.70;;;;;;5031757;28;20427;-80
2022/04/03 08:38:46;;;;;;;;;;;5.50;51.10;;;;;;5033403;28;19971;-80
2022/04/03 08:41:12;;;;;;;;;;;5.50;51.90;;;;;;5031267;28;19921;-80
2022/04/03 08:43:40;;;;;;;;;;;5.70;51.60;;;;;;5022582;28;19919;-79
2022/04/03 08:46:06;;;;;;;;;;;5.90;51.10;;;;;;5037532;28;19917;-82
2022/04/03 08:48:31;;;;;;;;;;;6.10;50.60;;;;;;5036073;28;19913;-77
2022/04/03 08:50:58;;;;;;;;;;;6.10;47.80;;;;;;5037175;28;20380;-79
2022/04/03 08:53:25;;;;;;;;;;;6.10;48.40;;;;;;5032397;28;19921;-78
2022/04/03 08:55:51;;;;;;;;;;;6.00;47.90;;;;;;5035815;28;20360;-78
2022/04/03 08:58:17;;;;;;;;;;;6.20;50.10;;;;;;5045606;28;19984;-81
2022/04/03 09:00:42;;;;;;;;;;;6.20;49.40;;;;;;5046893;28;19976;-81
2022/04/03 09:03:08;;;;;;;;;;;6.30;49.70;;;;;;5042567;28;20264;-81
2022/04/03 09:05:37;;;;;;;;;;;6.20;49.90;;;;;;5042696;28;19979;-80
2022/04/03 09:08:03;;;;;;;;;;;6.30;48.70;;;;;;5041551;28;19921;-80
2022/04/03 09:10:29;;;;;;;;;;;6.30;50.00;;;;;;5039777;28;20399;-80
2022/04/03 09:12:55;;;;;;;;;;;6.30;48.70;;;;;;5041057;28;19955;-80
2022/04/03 09:15:21;;;;;;;;;;;6.40;49.50;;;;;;5051000;28;19972;-81
2022/04/03 09:17:49;;;;;;;;;;;6.40;46.50;;;;;;5036633;28;19913;-81
2022/04/03 09:20:34;;;;;;;;;;;6.30;46.30;;;;;;5029331;28;21122;-80
2022/04/03 09:23:10;;;;;;;;;;;6.00;47.60;;;;;;5029696;28;19921;-76
2022/04/03 09:25:37;;;;;;;;;;;6.10;46.70;;;;;;5027586;28;19928;-81
2022/04/03 09:28:04;;;;;;;;;;;5.90;45.10;;;;;;5024089;28;19924;-80
2022/04/03 09:30:32;;;;;;;;;;;5.70;47.20;;;;;;5024289;28;19931;-79
2022/04/03 09:32:59;;;;;;;;;;;5.70;48.90;;;;;;5027947;28;19963;-82
2022/04/03 09:35:26;;;;;;;;;;;5.60;50.20;;;;;;5028694;28;20016;-80
2022/04/03 09:38:04;;;;;;;;;;;5.70;49.60;;;;;;5022999;28;19921;-80
2022/04/03 09:40:30;;;;;;;;;;;5.80;50.10;;;;;;5027967;28;19952;-82
2022/04/03 09:43:15;;;;;;;;;;;5.70;50.60;;;;;;5029435;28;19913;-81
2022/04/03 09:45:48;;;;;;;;;;;5.60;50.90;;;;;;5035542;28;19932;-80
2022/04/03 09:48:33;;;;;;;;;;;5.70;49.90;;;;;;5047874;28;19912;-81
2022/04/03 09:51:07;;;;;;;;;;;5.60;50.70;;;;;;5031830;28;19989;-81
2022/04/03 09:53:53;;;;;;;;;;;5.60;51.10;;;;;;5037856;28;20307;-81
2022/04/03 09:56:22;;;;;;;;;;;5.50;51.90;;;;;;5017804;28;19959;-81
2022/04/03 09:58:50;;;;;;;;;;;5.70;51.70;;;;;;5036008;28;19925;-81
2022/04/03 10:01:26;;;;;;;;;;;5.90;52.40;;;;;;5033195;28;19909;-79
2022/04/03 10:03:52;;;;;;;;;;;5.90;51.30;;;;;;5034288;28;19913;-78
2022/04/03 10:06:18;;;;;;;;;;;5.90;51.70;;;;;;5035326;28;19917;-78
2022/04/03 10:08:45;;;;;;;;;;;6.00;52.00;;;;;;5031616;28;19928;-78
2022/04/03 10:11:11;;;;;;;;;;;6.10;52.70;;;;;;5030265;28;19983;-79
2022/04/03 10:13:37;;;;;;;;;;;6.30;51.20;;;;;;5029344;28;19920;-79
2022/04/03 10:16:04;;;;;;;;;;;6.50;51.70;;;;;;5028443;28;19917;-80
2022/04/03 10:18:29;;;;;;;;;;;6.80;51.10;;;;;;5029161;28;19917;-80
2022/04/03 10:20:54;;;;;;;;;;;7.10;49.50;;;;;;5028646;28;19913;-79
2022/04/03 10:23:21;;;;;;;;;;;7.10;49.50;;;;;;5029609;28;19948;-83
2022/04/03 10:25:49;;;;;;;;;;;7.40;50.00;;;;;;5032172;28;19917;-82
2022/04/03 10:28:17;;;;;;;;;;;7.60;47.70;;;;;;5035707;28;19924;-81
2022/04/03 10:30:43;;;;;;;;;;;7.60;48.60;;;;;;5030816;28;19917;-82
2022/04/03 10:33:19;;;;;;;;;;;7.40;47.60;;;;;;5031213;28;19917;-82
2022/04/03 10:35:48;;;;;;;;;;;7.40;47.90;;;;;;5032779;28;19921;-82
2022/04/03 10:38:14;;;;;;;;;;;7.30;49.00;;;;;;5028856;28;19924;-81
2022/04/03 10:40:40;;;;;;;;;;;7.50;47.20;;;;;;5033230;28;19913;-82
2022/04/03 10:43:06;;;;;;;;;;;7.40;49.30;;;;;;5037841;28;19945;-80
2022/04/03 10:45:36;;;;;;;;;;;7.30;48.20;;;;;;5035076;28;19913;-81
2022/04/03 10:48:26;;;;;;;;;;;7.40;48.80;;;;;;5032711;28;19988;-81
2022/04/03 10:50:55;;;;;;;;;;;7.20;50.80;;;;;;5035344;28;19917;-83
2022/04/03 10:53:25;;;;;;;;;;;6.90;50.60;;;;;;5039571;28;19977;-82
2022/04/03 10:55:55;;;;;;;;;;;6.60;51.30;;;;;;5039317;28;19936;-81
2022/04/03 10:58:21;;;;;;;;;;;6.40;51.90;;;;;;5032712;28;19913;-81
2022/04/03 11:00:47;;;;;;;;;;;6.30;52.40;;;;;;5035189;28;19924;-81
2022/04/03 11:03:13;;;;;;;;;;;6.30;52.40;;;;;;5028584;28;19917;-81
2022/04/03 11:05:39;;;;;;;;;;;6.30;54.20;;;;;;5026710;28;19913;-80
2022/04/03 11:08:04;;;;;;;;;;;6.40;54.20;;;;;;5048658;28;20003;-83
2022/04/03 11:10:42;;;;;;;;;;;6.40;54.40;;;;;;5033527;28;19944;-78
2022/04/03 11:13:08;;;;;;;;;;;6.60;53.50;;;;;;5036532;28;19920;-83
2022/04/03 11:15:44;;;;;;;;;;;6.60;53.20;;;;;;5035097;28;19917;-82
2022/04/03 11:18:24;;;;;;;;;;;6.60;55.00;;;;;;5033656;28;19936;-82
2022/04/03 11:21:03;;;;;;;;;;;6.70;56.00;;;;;;5035079;28;19960;-80
2022/04/03 11:23:29;;;;;;;;;;;6.80;55.60;;;;;;5032681;28;19913;-81
2022/04/03 11:25:55;;;;;;;;;;;6.90;55.80;;;;;;5037289;28;19917;-82
2022/04/03 11:28:21;;;;;;;;;;;7.00;54.80;;;;;;5040475;28;20391;-81
2022/04/03 11:30:47;;;;;;;;;;;7.10;53.60;;;;;;5035934;28;19933;-83
2022/04/03 11:33:12;;;;;;;;;;;7.30;54.80;;;;;;5039836;28;19980;-84
2022/04/03 11:35:40;;;;;;;;;;;7.50;53.90;;;;;;5040579;28;19917;-84
2022/04/03 11:38:06;;;;;;;;;;;7.60;54.10;;;;;;5036330;28;19917;-83
2022/04/03 11:40:33;;;;;;;;;;;7.60;53.10;;;;;;5035263;28;19921;-84
2022/04/03 11:43:09;;;;;;;;;;;7.80;53.40;;;;;;5036788;28;19913;-84
2022/04/03 11:45:34;;;;;;;;;;;8.00;53.00;;;;;;5053624;28;19917;-84
2022/04/03 11:48:16;;;;;;;;;;;8.20;51.70;;;;;;5029741;28;20330;-83
2022/04/03 11:50:42;;;;;;;;;;;8.40;51.20;;;;;;5029944;28;19924;-85
2022/04/03 11:53:08;;;;;;;;;;;8.40;50.10;;;;;;5033096;28;19913;-83
2022/04/03 11:55:34;;;;;;;;;;;8.20;51.50;;;;;;5033050;28;19929;-86
2022/04/03 11:58:00;;;;;;;;;;;8.10;51.20;;;;;;5030950;28;20037;-82
2022/04/03 12:00:25;;;;;;;;;;;8.10;51.50;;;;;;5032401;28;20016;-82
2022/04/03 12:02:56;;;;;;;;;;;8.20;52.60;;;;;;5033663;28;20384;-82
2022/04/03 12:05:21;;;;;;;;;;;8.40;52.70;;;;;;5034646;28;19921;-84
2022/04/03 12:07:50;;;;;;;;;;;8.60;51.00;;;;;;5038159;28;19913;-83
2022/04/03 12:10:23;;;;;;;;;;;8.50;50.20;;;;;;5031530;28;19925;-82
2022/04/03 12:12:48;;;;;;;;;;;8.50;50.10;;;;;;5062383;28;19913;-83
2022/04/03 12:15:14;;;;;;;;;;;8.30;49.00;;;;;;5047840;28;20415;-81
2022/04/03 12:17:41;;;;;;;;;;;8.20;48.80;;;;;;5041630;28;20249;-83
2022/04/03 12:20:09;;;;;;;;;;;8.30;50.50;;;;;;5023554;28;19921;-82
2022/04/03 12:22:35;;;;;;;;;;;8.50;50.10;;;;;;5034533;28;19917;-81
2022/04/03 12:25:00;;;;;;;;;;;8.40;49.50;;;;;;5033364;28;19976;-82
2022/04/03 12:27:33;;;;;;;;;;;8.50;49.20;;;;;;5036072;28;19919;-82
2022/04/03 12:29:59;;;;;;;;;;;8.60;49.80;;;;;;5033369;28;19940;-79
2022/04/03 12:32:37;;;;;;;;;;;8.60;48.30;;;;;;5032899;28;20376;-81
2022/04/03 12:35:09;;;;;;;;;;;8.60;50.00;;;;;;5030171;28;19975;-82
2022/04/03 12:37:36;;;;;;;;;;;8.60;50.00;;;;;;5047575;28;19967;-81
2022/04/03 12:40:03;;;;;;;;;;;8.80;49.70;;;;;;5031197;28;19913;-83
2022/04/03 12:42:28;;;;;;;;;;;8.80;49.60;;;;;;5033703;28;19913;-81
2022/04/03 12:44:57;;;;;;;;;;;9.10;50.20;;;;;;5031367;28;19919;-82
2022/04/03 12:47:24;;;;;;;;;;;9.40;49.30;;;;;;5031227;28;20383;-82
2022/04/03 12:50:11;;;;;;;;;;;9.60;47.60;;;;;;5031349;28;19945;-83
2022/04/03 12:52:44;;;;;;;;;;;9.60;46.50;;;;;;5030749;28;19928;-81
2022/04/03 12:55:25;;;;;;;;;;;9.30;46.70;;;;;;5034670;28;19920;-84
2022/04/03 13:00:57;;;;;;;;;;;8.60;47.60;;;;;;4993513;28;20044;-81
2022/04/03 13:03:30;;;;;;;;;;;8.30;50.50;;;;;;5034058;22;19997;-82
2022/04/03 13:05:59;;;;;;;;;;;8.10;50.70;;;;;;5031012;28;19913;-81
2022/04/03 13:08:25;;;;;;;;;;;8.00;51.50;;;;;;5039160;28;19944;-83
2022/04/03 13:10:57;;;;;;;;;;;7.80;52.00;;;;;;5035627;28;20385;-85
2022/04/03 13:13:23;;;;;;;;;;;7.70;52.30;;;;;;5025600;28;19913;-83
2022/04/03 13:15:50;;;;;;;;;;;7.70;52.60;;;;;;5038296;28;20211;-83
2022/04/03 13:18:16;;;;;;;;;;;7.60;53.10;;;;;;5028867;28;19967;-79
2022/04/03 13:20:46;;;;;;;;;;;7.60;53.50;;;;;;5038250;28;19917;-78
2022/04/03 13:23:11;;;;;;;;;;;7.70;54.00;;;;;;5029525;28;19920;-78
2022/04/03 13:25:37;;;;;;;;;;;7.70;54.40;;;;;;5032799;28;20353;-77
2022/04/03 13:28:02;;;;;;;;;;;7.80;53.70;;;;;;5030063;28;19975;-77
2022/04/03 13:30:31;;;;;;;;;;;7.80;54.40;;;;;;5026208;28;19924;-77
2022/04/03 13:32:57;;;;;;;;;;;8.00;54.50;;;;;;5036226;28;19945;-77
2022/04/03 13:35:23;;;;;;;;;;;8.00;53.50;;;;;;5036395;28;20389;-77
2022/04/03 13:37:49;;;;;;;;;;;8.00;54.50;;;;;;5024342;28;20308;-78
2022/04/03 13:40:14;;;;;;;;;;;8.20;54.70;;;;;;5027639;28;19913;-78
2022/04/03 13:42:40;;;;;;;;;;;8.20;54.30;;;;;;5027172;28;19913;-78
2022/04/03 13:45:06;;;;;;;;;;;8.30;54.30;;;;;;5029475;28;19956;-78
2022/04/03 13:47:31;;;;;;;;;;;8.50;55.40;;;;;;5027729;28;19929;-78
2022/04/03 13:49:57;;;;;;;;;;;8.50;54.40;;;;;;5028234;28;19917;-77
2022/04/03 13:52:24;;;;;;;;;;;8.50;53.00;;;;;;5031123;28;19917;-77
2022/04/03 13:54:49;;;;;;;;;;;8.50;53.50;;;;;;5029178;28;19917;-78
2022/04/03 13:57:15;;;;;;;;;;;8.60;52.80;;;;;;5026968;28;19999;-79
2022/04/03 13:59:40;;;;;;;;;;;8.60;52.00;;;;;;5031867;28;19913;-79
2022/04/03 14:02:06;;;;;;;;;;;8.70;53.30;;;;;;5026072;28;19917;-78
2022/04/03 14:04:31;;;;;;;;;;;9.00;53.10;;;;;;5023747;28;19945;-79
2022/04/03 14:06:57;;;;;;;;;;;9.10;51.00;;;;;;5030616;28;19964;-78
2022/04/03 14:09:22;;;;;;;;;;;9.00;50.70;;;;;;5027996;28;20352;-79
2022/04/03 14:11:48;;;;;;;;;;;8.90;52.50;;;;;;5029995;28;19913;-79
2022/04/03 14:14:14;;;;;;;;;;;9.00;52.10;;;;;;5032216;28;19917;-79
2022/04/03 14:16:39;;;;;;;;;;;8.90;49.90;;;;;;5034034;28;19909;-79
2022/04/03 14:19:08;;;;;;;;;;;8.90;51.70;;;;;;5035726;28;20396;-80
2022/04/03 14:21:34;;;;;;;;;;;9.00;52.00;;;;;;5035018;28;19913;-80
2022/04/03 14:23:59;;;;;;;;;;;9.10;51.10;;;;;;5030398;28;19975;-79
2022/04/03 14:26:25;;;;;;;;;;;9.00;50.40;;;;;;5031539;28;19962;-80
2022/04/03 14:28:50;;;;;;;;;;;9.00;51.40;;;;;;5029343;28;19917;-79
2022/04/03 14:31:16;;;;;;;;;;;9.30;50.60;;;;;;5030768;28;19919;-79